Time;durP1;ratioP1;P1;durP2;ratioP2;P2;SDS_P1;SDS_P2;PMS_P1;PMS_P2;Temp;Humidity;BMP_temperature;BMP_pressure;BME280_temperature;BME280_humidity;BME280_pressure;Samples;Min_cycle;Max_cycle;Signal;HPM_P1;HPM_P2
2022/08/11 00:02:36;;;;;;;7.30;6.05;;;17.00;99.90;;;;;;4964973;28;20040;-89
2022/08/11 00:05:06;;;;;;;7.68;5.75;;;16.90;99.90;;;;;;4963887;28;20103;-88
2022/08/11 00:07:32;;;;;;;7.60;6.30;;;17.00;99.90;;;;;;4962806;28;20054;-88
2022/08/11 00:09:58;;;;;;;7.70;5.95;;;16.90;99.90;;;;;;4986204;28;20049;-90
2022/08/11 00:12:24;;;;;;;8.40;5.88;;;16.80;99.90;;;;;;4981252;28;20041;-88
2022/08/11 00:14:57;;;;;;;8.73;7.40;;;16.80;99.90;;;;;;4965041;28;20053;-89
2022/08/11 00:17:26;;;;;;;8.10;6.80;;;16.70;99.90;;;;;;4965824;28;20053;-89
2022/08/11 00:19:53;;;;;;;9.80;7.15;;;16.60;99.90;;;;;;4981623;28;20540;-89
2022/08/11 00:22:20;;;;;;;9.40;6.68;;;16.60;99.90;;;;;;4976729;28;20049;-89
2022/08/11 00:24:45;;;;;;;9.30;7.47;;;16.70;99.90;;;;;;4970943;28;20181;-88
2022/08/11 00:27:11;;;;;;;8.85;6.82;;;16.70;99.90;;;;;;4961504;28;20434;-89
2022/08/11 00:29:39;;;;;;;9.73;7.20;;;16.70;99.90;;;;;;4946146;28;20363;-88
2022/08/11 00:32:06;;;;;;;11.30;7.57;;;16.60;99.90;;;;;;4962557;28;20049;-90
2022/08/11 00:34:33;;;;;;;9.00;7.82;;;16.50;99.90;;;;;;4978563;28;20501;-90
2022/08/11 00:37:16;;;;;;;11.85;8.25;;;16.50;99.90;;;;;;4997035;28;20042;-89
2022/08/11 00:39:43;;;;;;;10.38;8.48;;;16.50;99.90;;;;;;4986306;28;20562;-88
2022/08/11 00:42:18;;;;;;;9.48;8.48;;;16.50;99.90;;;;;;4985208;28;20049;-90
2022/08/11 00:44:52;;;;;;;10.90;8.57;;;16.50;99.90;;;;;;5017772;28;20037;-88
2022/08/11 00:47:30;;;;;;;12.40;9.27;;;16.50;99.90;;;;;;5017573;28;20049;-90
2022/08/11 00:50:21;;;;;;;12.90;8.45;;;16.40;99.90;;;;;;5000529;28;20436;-89
2022/08/11 00:53:14;;;;;;;13.68;9.32;;;16.40;99.90;;;;;;5017602;28;20041;-88
2022/08/11 00:55:59;;;;;;;10.45;8.80;;;16.40;99.90;;;;;;5003728;28;20053;-89
2022/08/11 00:58:56;;;;;;;10.73;8.48;;;16.40;99.90;;;;;;5017610;28;20049;-90
2022/08/11 01:01:34;;;;;;;12.30;9.02;;;16.30;99.90;;;;;;5017392;28;20350;-89
2022/08/11 01:04:37;;;;;;;15.70;9.50;;;16.40;99.90;;;;;;4969886;28;20081;-89
2022/08/11 01:07:14;;;;;;;12.32;8.52;;;16.40;99.90;;;;;;5014383;28;20053;-89
2022/08/11 01:09:48;;;;;;;10.38;8.88;;;16.40;99.90;;;;;;5018526;28;20186;-89
2022/08/11 01:12:39;;;;;;;10.90;9.43;;;16.30;99.90;;;;;;5017180;28;20045;-89
2022/08/11 01:15:39;;;;;;;12.38;9.73;;;16.20;99.90;;;;;;5026767;28;20046;-89
2022/08/11 01:18:19;;;;;;;13.27;9.70;;;16.30;99.90;;;;;;5000430;28;20140;-88
2022/08/11 01:21:03;;;;;;;14.88;10.48;;;16.20;99.90;;;;;;5033414;28;20050;-90
2022/08/11 01:26:46;;;;;;;14.25;10.65;;;16.20;99.90;;;;;;6083516;23;20126;-90
2022/08/11 01:29:50;;;;;;;11.82;9.27;;;16.10;99.90;;;;;;4990212;28;20079;-87
2022/08/11 01:32:35;;;;;;;13.32;9.73;;;16.10;99.90;;;;;;5022897;28;20093;-88
2022/08/11 01:35:00;;;;;;;;;;;16.20;99.90;;;;;;5014546;28;20049;-88
2022/08/11 01:37:49;;;;;;;13.25;9.57;;;16.20;99.90;;;;;;5001140;28;19917;-89
2022/08/11 01:40:50;;;;;;;13.23;10.32;;;16.20;99.90;;;;;;5016794;28;20053;-87
2022/08/11 01:46:25;;;;;;;19.60;11.88;;;16.10;99.90;;;;;;5001116;28;20050;-87
2022/08/11 01:49:31;;;;;;;13.82;11.13;;;16.20;99.90;;;;;;4983397;28;20049;-88
2022/08/11 01:52:08;;;;;;;15.20;11.38;;;16.10;99.90;;;;;;4986526;28;20080;-88
2022/08/11 01:55:16;;;;;;;16.55;11.82;;;16.10;99.90;;;;;;4983942;28;20053;-88
2022/08/11 01:57:50;;;;;;;18.75;12.10;;;16.00;99.90;;;;;;4966170;28;20132;-88
2022/08/11 02:00:18;;;;;;;14.70;11.43;;;16.00;99.90;;;;;;4985606;28;20046;-88
2022/08/11 02:03:11;;;;;;;13.55;11.32;;;15.90;99.90;;;;;;5001345;28;20041;-88
2022/08/11 02:06:00;;;;;;;16.02;12.32;;;15.90;99.90;;;;;;5003926;28;20038;-89
2022/08/11 02:08:54;;;;;;;17.20;12.43;;;15.90;99.90;;;;;;5006241;28;20038;-87
2022/08/11 02:11:30;;;;;;;18.70;12.15;;;15.90;99.90;;;;;;4998522;28;20089;-87
2022/08/11 02:14:19;;;;;;;18.52;12.75;;;15.90;99.90;;;;;;4974633;28;20054;-87
2022/08/11 02:17:06;;;;;;;15.85;12.90;;;15.80;99.90;;;;;;5003744;28;20057;-87
2022/08/11 02:26:04;;;;;;;17.08;14.07;;;15.70;99.90;;;;;;4999873;28;20473;-88
2022/08/11 02:29:27;;;;;;;15.65;13.57;;;15.70;99.90;;;;;;4983794;28;20057;-87
2022/08/11 02:35:20;;;;;;;15.27;12.43;;;15.60;99.90;;;;;;4910285;29;20086;-87
2022/08/11 02:38:08;;;;;;;17.98;13.95;;;15.60;99.90;;;;;;4969389;28;20046;-87
2022/08/11 02:42:21;;;;;;;18.50;14.30;;;15.60;99.90;;;;;;5002026;28;20056;-87
2022/08/11 02:44:00;;;;;;;19.55;13.55;;;15.60;99.90;;;;;;4998931;28;20046;-87
2022/08/11 02:46:35;;;;;;;15.75;13.13;;;15.50;99.90;;;;;;4984510;28;20120;-87
2022/08/11 02:52:50;;;;;;;22.08;14.75;;;15.50;99.90;;;;;;4962219;28;20050;-87
2022/08/11 02:55:31;;;;;;;16.90;13.07;;;15.50;99.90;;;;;;5020829;28;20041;-89
2022/08/11 02:58:18;;;;;;;21.10;13.55;;;15.50;99.90;;;;;;5017758;28;20576;-88
2022/08/11 03:00:52;;;;;;;20.10;14.25;;;15.50;99.90;;;;;;5016261;28;20353;-86
2022/08/11 03:03:52;;;;;;;16.58;14.15;;;15.50;99.90;;;;;;4984098;28;20469;-86
2022/08/11 03:06:22;;;;;;;17.73;13.85;;;15.50;99.90;;;;;;4992779;28;20069;-87
2022/08/11 03:09:04;;;;;;;18.80;14.43;;;15.40;99.90;;;;;;4998639;28;20049;-87
2022/08/11 03:17:36;;;;;;;16.70;13.57;;;15.40;99.90;;;;;;4985956;28;20092;-86
2022/08/11 03:20:14;;;;;;;19.07;13.13;;;15.40;99.90;;;;;;5015975;28;20046;-87
2022/08/11 03:22:52;;;;;;;18.23;14.23;;;15.40;99.90;;;;;;4998751;28;20061;-86
2022/08/11 03:25:45;;;;;;;21.88;15.45;;;15.30;99.90;;;;;;4999482;28;20394;-87
2022/08/11 03:28:42;;;;;;;19.40;14.80;;;15.30;99.90;;;;;;5000403;28;20133;-86
2022/08/11 03:31:36;;;;;;;18.20;15.00;;;15.20;99.90;;;;;;5000723;28;20103;-87
2022/08/11 03:34:10;;;;;;;22.73;15.27;;;15.30;99.90;;;;;;4937999;28;20058;-87
2022/08/11 03:36:35;;;;;;;;;;;15.20;99.90;;;;;;5011522;28;20065;-89
2022/08/11 03:39:39;;;;;;;18.60;14.23;;;15.20;99.90;;;;;;5021775;28;19921;-88
2022/08/11 03:42:24;;;;;;;18.75;13.70;;;15.20;99.90;;;;;;5031014;28;20041;-87
2022/08/11 03:44:55;;;;;;;16.25;13.27;;;15.20;99.90;;;;;;4992621;28;20457;-86
2022/08/11 03:47:36;;;;;;;20.17;15.38;;;15.20;99.90;;;;;;5000207;28;20041;-88
2022/08/11 03:50:27;;;;;;;21.02;16.40;;;15.20;99.90;;;;;;5002116;28;20045;-88
2022/08/11 03:53:30;;;;;;;24.17;16.27;;;15.20;99.90;;;;;;5014071;28;20060;-87
2022/08/11 03:56:02;;;;;;;21.85;16.90;;;15.20;99.90;;;;;;4981871;28;20041;-88
2022/08/11 03:58:28;;;;;;;22.73;17.17;;;15.10;99.90;;;;;;5016093;28;20065;-87
2022/08/11 04:01:25;;;;;;;23.38;17.02;;;15.10;99.90;;;;;;4981487;28;20081;-87
2022/08/11 04:04:15;;;;;;;22.27;16.60;;;15.00;99.90;;;;;;4981958;28;20125;-88
2022/08/11 04:06:50;;;;;;;20.88;15.82;;;15.00;99.90;;;;;;5000847;28;20038;-88
2022/08/11 04:09:45;;;;;;;18.52;14.68;;;15.00;99.90;;;;;;4965379;28;20061;-87
2022/08/11 04:12:29;;;;;;;21.77;15.13;;;14.90;99.90;;;;;;4983708;28;20049;-88
2022/08/11 04:18:27;;;;;;;21.00;14.82;;;14.90;99.90;;;;;;4997721;28;20054;-83
2022/08/11 04:20:59;;;;;;;18.55;13.90;;;14.90;99.90;;;;;;5003509;28;20036;-83
2022/08/11 04:24:02;;;;;;;21.50;16.05;;;14.90;99.90;;;;;;5002510;28;20498;-88
2022/08/11 04:27:06;;;;;;;24.13;15.90;;;14.90;99.90;;;;;;4995346;28;20054;-88
2022/08/11 04:29:45;;;;;;;19.92;14.75;;;14.90;99.90;;;;;;4995056;28;20042;-88
2022/08/11 04:32:20;;;;;;;21.98;16.10;;;15.00;99.90;;;;;;4963120;28;20512;-87
2022/08/11 04:35:07;;;;;;;21.27;15.00;;;15.00;99.90;;;;;;4995381;28;20050;-87
2022/08/11 04:38:10;;;;;;;24.90;14.68;;;15.00;99.90;;;;;;4995469;28;20042;-83
2022/08/11 04:41:15;;;;;;;21.75;14.43;;;15.10;99.90;;;;;;4994727;28;20042;-85
2022/08/11 04:44:04;;;;;;;23.17;15.93;;;15.20;99.90;;;;;;5009967;28;20049;-84
2022/08/11 04:46:48;;;;;;;20.67;15.88;;;15.50;99.90;;;;;;4994943;28;20084;-84
2022/08/11 05:02:07;;;;;;;15.88;11.38;;;18.30;99.90;;;;;;4993968;28;20105;-85
2022/08/11 05:08:02;;;;;;;13.48;10.00;;;19.10;99.90;;;;;;5011968;28;20038;-86
2022/08/11 05:10:52;;;;;;;14.68;10.88;;;19.60;99.90;;;;;;4998687;28;20081;-87
2022/08/11 05:36:59;;;;;;;10.38;9.45;;;22.30;99.90;;;;;;5003353;28;20046;-90
2022/08/11 05:56:46;;;;;;;8.93;8.05;;;23.40;99.90;;;;;;4997772;28;20050;-92
2022/08/11 05:59:17;;;;;;;9.40;8.40;;;24.50;99.90;;;;;;4966154;28;20050;-88
2022/08/11 06:01:43;;;;;;;8.25;7.45;;;23.80;99.90;;;;;;5014061;28;20085;-88
2022/08/11 06:04:16;;;;;;;9.60;7.63;;;24.20;99.90;;;;;;4997467;28;20128;-92
2022/08/11 06:06:59;;;;;;;8.77;7.97;;;24.20;99.90;;;;;;4998329;28;20090;-91
2022/08/11 06:09:35;;;;;;;9.97;8.97;;;24.00;99.90;;;;;;4981805;28;20054;-91
2022/08/11 06:12:03;;;;;;;8.60;7.80;;;24.10;99.90;;;;;;4980992;28;20053;-91
2022/08/11 06:14:29;;;;;;;8.68;7.78;;;24.00;99.90;;;;;;4969129;28;20053;-90
2022/08/11 06:16:58;;;;;;;8.20;7.38;;;24.00;99.90;;;;;;5019489;28;20367;-90
2022/08/11 06:19:33;;;;;;;9.50;7.68;;;24.80;99.90;;;;;;5021143;28;20058;-92
2022/08/11 06:21:59;;;;;;;8.70;7.18;;;24.70;99.90;;;;;;5019366;28;20050;-92
2022/08/11 06:24:27;;;;;;;8.50;7.80;;;25.30;99.90;;;;;;5013209;28;20050;-93
2022/08/11 06:26:52;;;;;;;8.80;7.97;;;24.70;99.90;;;;;;5014201;28;20508;-94
2022/08/11 06:29:18;;;;;;;8.25;7.55;;;25.10;99.90;;;;;;4991450;28;20085;-92
2022/08/11 06:31:58;;;;;;;8.05;7.25;;;25.00;99.90;;;;;;5013184;28;20065;-89
2022/08/11 06:34:33;;;;;;;8.00;7.20;;;25.10;99.90;;;;;;5017340;28;20065;-89
2022/08/11 06:37:24;;;;;;;8.30;7.50;;;25.60;99.90;;;;;;5000308;28;20050;-91
2022/08/11 06:40:23;;;;;;;7.85;7.15;;;25.90;99.90;;;;;;5001651;28;20402;-92
2022/08/11 06:43:19;;;;;;;7.40;6.70;;;26.90;99.90;;;;;;5004885;28;20050;-92
2022/08/11 06:46:01;;;;;;;8.25;7.38;;;26.70;99.90;;;;;;4999719;28;20054;-89
2022/08/11 06:48:33;;;;;;;8.40;7.30;;;26.50;99.90;;;;;;4981706;28;20046;-91
2022/08/11 06:51:12;;;;;;;9.18;7.30;;;26.90;99.90;;;;;;4996209;28;20045;-90
2022/08/11 06:53:58;;;;;;;8.07;6.93;;;27.40;99.90;;;;;;5013369;28;20140;-91
2022/08/11 07:02:51;;;;;;;7.10;6.50;;;28.20;99.90;;;;;;5005236;28;20461;-91
2022/08/11 07:05:26;;;;;;;6.97;6.38;;;27.90;99.90;;;;;;4997079;28;20050;-93
2022/08/11 07:17:13;;;;;;;8.02;6.10;;;28.70;99.90;;;;;;4982601;28;20050;-92
2022/08/11 07:30:45;;;;;;;6.47;5.20;;;29.30;99.90;;;;;;4981945;28;20058;-90
2022/08/11 07:33:10;;;;;;;7.40;5.95;;;29.70;99.90;;;;;;5011468;28;20068;-91
2022/08/11 07:35:41;;;;;;;7.28;5.30;;;29.50;99.90;;;;;;5012559;28;20042;-91
2022/08/11 07:38:11;;;;;;;5.75;5.25;;;29.30;99.90;;;;;;4995921;28;20054;-91
2022/08/11 07:40:39;;;;;;;6.95;5.20;;;29.50;99.90;;;;;;4995790;28;20478;-91
2022/08/11 07:43:05;;;;;;;8.43;5.28;;;29.90;99.90;;;;;;4995068;28;20537;-91
2022/08/11 07:53:44;;;;;;;6.38;5.03;;;30.50;99.20;;;;;;4981613;28;20051;-89
2022/08/11 07:56:13;;;;;;;5.72;4.47;;;29.90;99.60;;;;;;4979328;28;20054;-90
2022/08/11 08:17:56;;;;;;;3.22;2.92;;;31.80;97.90;;;;;;4996403;28;20093;-93
2022/08/11 08:20:50;;;;;;;3.20;2.58;;;31.80;98.00;;;;;;4995387;28;20363;-93
2022/08/11 08:23:31;;;;;;;4.63;2.75;;;32.30;97.50;;;;;;4993317;28;20193;-92
2022/08/11 08:26:00;;;;;;;3.17;2.25;;;32.20;96.40;;;;;;5027200;28;20038;-92
2022/08/11 08:28:25;;;;;;;2.58;2.38;;;31.90;96.70;;;;;;4999689;28;20199;-89
2022/08/11 08:30:53;;;;;;;6.28;2.28;;;32.20;96.30;;;;;;5033030;28;20030;-88
2022/08/11 08:33:22;;;;;;;4.85;2.53;;;32.70;96.00;;;;;;5000572;28;20052;-91
2022/08/11 08:35:50;;;;;;;2.58;2.20;;;32.40;95.70;;;;;;4997324;28;20050;-90
2022/08/11 08:38:18;;;;;;;2.13;1.95;;;32.20;96.20;;;;;;4995649;28;20077;-91
2022/08/11 08:40:45;;;;;;;2.30;2.10;;;32.10;95.70;;;;;;4993354;28;20414;-91
2022/08/11 08:43:14;;;;;;;2.38;2.17;;;32.80;94.90;;;;;;5010122;28;20058;-93
2022/08/11 08:45:39;;;;;;;3.67;2.08;;;32.90;95.40;;;;;;4994996;28;20104;-92
2022/08/11 08:48:18;;;;;;;3.22;1.90;;;33.30;95.00;;;;;;5011278;28;20464;-91
2022/08/11 08:53:34;;;;;;;4.63;2.00;;;33.50;94.40;;;;;;4982685;28;20152;-92
2022/08/11 08:56:00;;;;;;;4.63;1.67;;;33.10;94.10;;;;;;5011213;28;20062;-91
2022/08/11 08:58:26;;;;;;;3.13;1.98;;;33.20;94.90;;;;;;4985537;28;20043;-95
2022/08/11 09:00:53;;;;;;;3.38;1.67;;;33.40;94.60;;;;;;5003251;28;20045;-93
2022/08/11 09:03:19;;;;;;;1.60;1.48;;;32.90;93.90;;;;;;5016270;28;20093;-93
2022/08/11 09:05:48;;;;;;;2.88;1.70;;;33.10;93.30;;;;;;4997488;28;20109;-90
2022/08/11 09:08:16;;;;;;;4.38;1.98;;;33.20;93.50;;;;;;4997710;28;20112;-92
2022/08/11 09:10:42;;;;;;;1.73;1.63;;;32.80;92.60;;;;;;4997163;28;20129;-91
2022/08/11 09:13:07;;;;;;;1.80;1.70;;;33.10;93.00;;;;;;4997286;28;20105;-92
2022/08/11 09:15:33;;;;;;;2.38;1.52;;;33.30;93.00;;;;;;4981780;28;20379;-94
2022/08/11 09:18:04;;;;;;;2.97;1.85;;;33.30;93.30;;;;;;5014356;28;20379;-93
2022/08/11 09:20:34;;;;;;;1.63;1.52;;;33.40;93.10;;;;;;5016052;28;20072;-92
2022/08/11 09:28:41;;;;;;;4.38;1.60;;;34.30;91.50;;;;;;4988727;28;20061;-94
2022/08/11 09:31:09;;;;;;;2.50;1.80;;;33.80;91.80;;;;;;4999616;28;20050;-93
2022/08/11 09:33:35;;;;;;;3.25;1.73;;;33.70;91.90;;;;;;4998832;28;20046;-94
2022/08/11 09:40:27;;;;;;;2.38;1.70;;;33.70;91.20;;;;;;5026675;28;20029;-90
2022/08/11 09:41:39;;;;;;;1.92;1.50;;;34.30;91.00;;;;;;4965620;28;20497;-92
2022/08/11 09:46:50;;;;;;;2.20;1.30;;;34.10;90.70;;;;;;4987669;28;20050;-92
2022/08/11 09:49:18;;;;;;;3.92;1.40;;;34.10;90.20;;;;;;5016078;28;20041;-91
2022/08/11 09:51:43;;;;;;;1.60;1.50;;;34.40;90.00;;;;;;5013688;28;20086;-87
2022/08/11 09:54:09;;;;;;;2.08;1.60;;;34.00;90.40;;;;;;5018492;28;20037;-90
2022/08/11 09:59:20;;;;;;;4.45;1.50;;;34.10;90.30;;;;;;4985632;28;20046;-91
2022/08/11 10:01:48;;;;;;;1.50;1.40;;;34.10;90.20;;;;;;5013925;28;20374;-92
2022/08/11 10:04:19;;;;;;;1.48;1.38;;;33.80;90.00;;;;;;4997231;28;20605;-91
2022/08/11 10:07:05;;;;;;;6.22;2.03;;;33.90;88.70;;;;;;4998401;28;20057;-90
2022/08/11 10:09:55;;;;;;;1.50;1.40;;;34.30;88.50;;;;;;5013988;28;20085;-90
2022/08/11 10:12:32;;;;;;;1.55;1.45;;;34.30;87.90;;;;;;4997719;28;20050;-90
2022/08/11 10:20:44;;;;;;;1.63;1.48;;;34.00;87.30;;;;;;4997213;28;20134;-92
2022/08/11 10:28:40;;;;;;;3.45;1.67;;;33.40;86.80;;;;;;4996770;28;20050;-91
2022/08/11 10:33:58;;;;;;;5.35;1.65;;;33.70;87.90;;;;;;4983119;28;20155;-90
2022/08/11 10:36:27;;;;;;;2.13;1.70;;;33.70;89.10;;;;;;4996389;28;20046;-90
2022/08/11 10:38:54;;;;;;;2.50;1.60;;;34.40;87.80;;;;;;4996178;28;20512;-90
2022/08/11 10:44:05;;;;;;;3.60;1.60;;;33.80;87.80;;;;;;4996474;28;20452;-91
2022/08/11 10:49:15;;;;;;;1.60;1.50;;;33.40;87.10;;;;;;4982244;28;20450;-89
2022/08/11 10:59:55;;;;;;;3.22;1.55;;;33.40;86.80;;;;;;4983092;28;20054;-89
2022/08/11 11:02:21;;;;;;;1.30;1.20;;;33.70;87.70;;;;;;4995549;28;20038;-91
2022/08/11 11:04:52;;;;;;;3.35;1.33;;;33.90;86.40;;;;;;4996688;28;20056;-87
2022/08/11 11:07:23;;;;;;;4.25;1.65;;;33.40;86.60;;;;;;5015264;28;20046;-91
2022/08/11 11:09:57;;;;;;;3.20;1.55;;;33.10;87.40;;;;;;5032705;28;20054;-92
2022/08/11 11:18:18;;;;;;;1.85;1.58;;;33.90;86.00;;;;;;4997428;28;19921;-84
2022/08/11 11:20:43;;;;;;;1.92;1.33;;;33.70;86.10;;;;;;5002026;28;20390;-89
2022/08/11 11:23:17;;;;;;;2.80;1.50;;;32.60;87.60;;;;;;4995980;28;20042;-86
2022/08/11 11:26:11;;;;;;;3.33;1.73;;;32.60;87.40;;;;;;4996184;28;20042;-90
2022/08/11 11:28:49;;;;;;;1.85;1.50;;;32.20;87.90;;;;;;4994581;28;20054;-86
2022/08/11 11:31:30;;;;;;;1.70;1.60;;;31.80;87.90;;;;;;4996615;28;20430;-90
2022/08/11 11:34:14;;;;;;;1.63;1.50;;;31.90;85.40;;;;;;4997504;28;20394;-90
2022/08/11 11:36:52;;;;;;;3.13;1.60;;;31.90;88.00;;;;;;4996548;28;20383;-87
2022/08/11 11:39:23;;;;;;;2.28;1.45;;;32.00;85.50;;;;;;4995663;28;20054;-87
2022/08/11 11:42:00;;;;;;;2.50;1.40;;;31.90;85.80;;;;;;4996775;28;20045;-91
2022/08/11 11:44:28;;;;;;;1.65;1.50;;;31.80;85.50;;;;;;4997204;28;20085;-91
2022/08/11 11:46:59;;;;;;;1.52;1.42;;;31.20;85.70;;;;;;4983860;28;20137;-91
2022/08/11 11:49:42;;;;;;;2.08;1.55;;;31.40;87.00;;;;;;4997025;28;20496;-92
2022/08/11 11:52:12;;;;;;;;;;;31.60;87.70;;;;;;4981077;28;20498;-90
2022/08/11 11:54:41;;;;;;;2.70;1.45;;;31.40;87.30;;;;;;5012648;28;20412;-91
2022/08/11 12:02:35;;;;;;;2.53;1.30;;;31.40;87.40;;;;;;4981205;28;20050;-90
2022/08/11 12:05:01;;;;;;;2.45;1.65;;;31.20;87.50;;;;;;4994071;28;20058;-89
2022/08/11 12:10:12;;;;;;;1.67;1.58;;;31.40;87.30;;;;;;4984854;28;20050;-88
2022/08/11 12:15:23;;;;;;;3.03;1.50;;;31.10;86.00;;;;;;4981497;28;20064;-90
2022/08/11 12:17:48;;;;;;;1.95;1.73;;;31.20;86.30;;;;;;4979740;28;20454;-87
2022/08/11 12:20:19;;;;;;;2.25;1.52;;;31.10;86.50;;;;;;4995122;28;20100;-90
2022/08/11 12:28:17;;;;;;;4.25;1.73;;;31.30;84.60;;;;;;4981126;28;20129;-90
2022/08/11 12:30:46;;;;;;;4.40;1.52;;;31.10;85.40;;;;;;4994529;28;20501;-90
2022/08/11 12:33:13;;;;;;;2.67;1.60;;;31.30;86.00;;;;;;4982974;28;20093;-91
2022/08/11 12:35:38;;;;;;;1.50;1.40;;;31.40;86.10;;;;;;4973666;28;20054;-90
2022/08/11 12:38:07;;;;;;;3.65;1.60;;;31.70;85.00;;;;;;5018576;28;20049;-88
2022/08/11 12:46:04;;;;;;;2.55;1.70;;;31.40;86.20;;;;;;5000168;28;20076;-89
2022/08/11 12:54:22;;;;;;;1.60;1.35;;;31.20;86.00;;;;;;4984476;28;20062;-87
2022/08/11 13:05:11;;;;;;;2.33;1.50;;;31.40;85.30;;;;;;4984210;28;20110;-90
2022/08/11 13:07:39;;;;;;;1.83;1.30;;;31.10;84.80;;;;;;4984368;28;20066;-88
2022/08/11 13:10:07;;;;;;;1.48;1.38;;;30.90;84.60;;;;;;5020477;28;20053;-89
2022/08/11 13:12:47;;;;;;;2.53;1.67;;;31.40;83.50;;;;;;5002417;28;20118;-89
2022/08/11 13:15:18;;;;;;;2.65;1.35;;;31.20;83.90;;;;;;4998630;28;20097;-90
2022/08/11 13:17:44;;;;;;;2.78;1.52;;;31.20;84.20;;;;;;5000840;28;20062;-90
2022/08/11 13:20:11;;;;;;;1.70;1.30;;;31.40;85.50;;;;;;5000795;28;20068;-91
2022/08/11 13:22:38;;;;;;;2.03;1.50;;;31.50;84.60;;;;;;4967481;28;20121;-91
2022/08/11 13:25:04;;;;;;;1.58;1.27;;;31.40;84.30;;;;;;4999284;28;20394;-91
2022/08/11 13:27:30;;;;;;;1.63;1.35;;;31.40;84.90;;;;;;4996504;28;20070;-89
2022/08/11 13:31:10;;;;;;;1.30;1.20;;;31.30;85.10;;;;;;4998874;28;20042;-89
2022/08/11 13:32:42;;;;;;;1.38;1.27;;;31.30;85.50;;;;;;5014105;28;20142;-91
2022/08/11 13:35:07;;;;;;;2.03;1.50;;;31.40;85.60;;;;;;4997426;28;20050;-88
2022/08/11 13:37:34;;;;;;;2.92;1.67;;;31.00;85.70;;;;;;5015178;28;20065;-88
2022/08/11 13:40:00;;;;;;;3.70;1.50;;;31.10;85.20;;;;;;4997285;28;20054;-89
2022/08/11 13:42:26;;;;;;;1.48;1.23;;;31.00;86.20;;;;;;4981507;28;20422;-89
2022/08/11 13:44:52;;;;;;;3.00;1.30;;;31.10;86.60;;;;;;4998346;28;20135;-88
2022/08/11 13:47:20;;;;;;;3.05;1.50;;;31.50;85.40;;;;;;5014970;28;20410;-88
2022/08/11 13:49:48;;;;;;;1.63;1.52;;;31.60;85.60;;;;;;5001020;28;20054;-89
2022/08/11 13:52:19;;;;;;;1.65;1.50;;;31.50;85.20;;;;;;5002179;28;20078;-92
2022/08/11 13:54:46;;;;;;;1.40;1.30;;;31.20;85.40;;;;;;5000351;28;20046;-91
2022/08/11 13:57:18;;;;;;;2.83;1.30;;;31.10;86.90;;;;;;4985708;28;20035;-92
2022/08/11 13:59:44;;;;;;;3.83;1.77;;;31.00;86.50;;;;;;5007186;28;20049;-92
2022/08/11 14:02:15;;;;;;;2.17;1.30;;;31.20;86.40;;;;;;5003955;28;20055;-89
2022/08/11 14:04:44;;;;;;;2.65;1.50;;;31.20;86.10;;;;;;5016286;28;20034;-87
2022/08/11 14:07:10;;;;;;;1.50;1.40;;;31.00;87.20;;;;;;5028921;28;20054;-91
2022/08/11 14:09:41;;;;;;;7.25;2.65;;;31.00;86.50;;;;;;4998191;28;20038;-91
2022/08/11 14:15:12;;;;;;;2.75;1.60;;;30.90;87.20;;;;;;5006060;28;20072;-88
2022/08/11 14:17:38;;;;;;;9.02;1.40;;;31.20;85.50;;;;;;5025167;28;20054;-88
2022/08/11 14:20:07;;;;;;;2.63;1.63;;;31.00;85.80;;;;;;5020540;28;20137;-88
2022/08/11 14:22:33;;;;;;;2.08;1.48;;;31.00;86.50;;;;;;4988135;28;20059;-88
2022/08/11 14:24:58;;;;;;;1.58;1.15;;;31.10;86.80;;;;;;5014231;28;20054;-88
2022/08/11 14:27:29;;;;;;;2.88;1.60;;;31.20;86.20;;;;;;4962074;28;20436;-89
2022/08/11 14:29:56;;;;;;;1.45;1.35;;;30.90;86.30;;;;;;5014494;28;20137;-89
2022/08/11 14:32:21;;;;;;;1.48;1.30;;;30.70;87.20;;;;;;5013134;28;20046;-90
2022/08/11 14:34:47;;;;;;;1.75;1.42;;;30.80;86.70;;;;;;4979916;28;20374;-88
2022/08/11 14:37:16;;;;;;;2.20;1.38;;;30.90;86.80;;;;;;4997236;28;20054;-89
2022/08/11 14:39:43;;;;;;;1.95;1.35;;;30.90;86.40;;;;;;4979827;28;20042;-88
2022/08/11 14:47:52;;;;;;;2.60;1.38;;;31.10;87.40;;;;;;4981957;28;20050;-89
2022/08/11 14:50:22;;;;;;;1.40;1.30;;;31.20;86.70;;;;;;5012976;28;20050;-88
2022/08/11 14:52:57;;;;;;;4.57;1.40;;;31.20;86.90;;;;;;5012579;28;20058;-90
2022/08/11 14:58:17;;;;;;;2.17;1.40;;;31.00;86.60;;;;;;4982178;28;20120;-88
2022/08/11 15:00:43;;;;;;;1.60;1.50;;;30.80;86.90;;;;;;4963240;28;20069;-89
2022/08/11 15:03:12;;;;;;;2.88;1.77;;;30.60;87.00;;;;;;4995925;28;20073;-88
2022/08/11 15:05:40;;;;;;;1.65;1.55;;;30.60;87.20;;;;;;5011581;28;20458;-87
2022/08/11 15:08:06;;;;;;;1.75;1.35;;;30.60;86.40;;;;;;4995604;28;20375;-88
2022/08/11 15:10:32;;;;;;;3.17;1.45;;;30.80;85.50;;;;;;4995727;28;20038;-92
2022/08/11 15:12:57;;;;;;;1.75;1.35;;;30.80;85.30;;;;;;4995028;28;20045;-86
2022/08/11 15:18:14;;;;;;;2.03;1.40;;;30.70;86.20;;;;;;4981862;28;20062;-88
2022/08/11 15:37:25;;;;;;;1.80;1.55;;;30.60;90.10;;;;;;4986409;28;20069;-89
2022/08/11 15:37:28;;;;;;;5.75;1.50;;;30.20;90.50;;;;;;5012287;28;20086;-90
2022/08/11 15:45:49;;;;;;;2.15;1.52;;;30.30;90.50;;;;;;5013252;28;20063;-89
2022/08/11 15:48:21;;;;;;;2.08;1.60;;;30.20;90.80;;;;;;4995907;28;20058;-93
2022/08/11 15:50:51;;;;;;;4.03;1.83;;;30.30;90.60;;;;;;5018557;28;20046;-93
2022/08/11 15:53:36;;;;;;;3.03;1.58;;;30.10;90.80;;;;;;5006874;28;20046;-90
2022/08/11 15:56:02;;;;;;;5.00;1.80;;;30.20;90.50;;;;;;4989778;28;20073;-87
2022/08/11 16:04:12;;;;;;;1.85;1.67;;;29.90;90.80;;;;;;5011689;28;20050;-90
2022/08/11 16:06:53;;;;;;;2.08;1.60;;;29.80;91.20;;;;;;5010876;28;20093;-91
2022/08/11 16:09:39;;;;;;;2.90;1.45;;;29.80;91.20;;;;;;4980169;28;20366;-89
2022/08/11 16:12:10;;;;;;;3.47;1.33;;;30.00;91.00;;;;;;4995148;28;20073;-87
2022/08/11 16:17:25;;;;;;;2.00;1.80;;;29.90;90.80;;;;;;5011270;28;20116;-86
2022/08/11 16:19:53;;;;;;;1.55;1.45;;;29.70;91.10;;;;;;4978154;28;20054;-88
2022/08/11 16:22:41;;;;;;;1.50;1.40;;;29.70;91.00;;;;;;4978550;28;20077;-90
2022/08/11 16:25:08;;;;;;;1.95;1.50;;;29.60;91.20;;;;;;4980181;28;20062;-87
2022/08/11 16:27:36;;;;;;;3.00;1.58;;;29.70;91.20;;;;;;4993986;28;20050;-88
2022/08/11 16:30:02;;;;;;;4.47;1.50;;;29.50;91.40;;;;;;4993777;28;20107;-90
2022/08/11 16:32:28;;;;;;;3.08;1.75;;;29.60;91.50;;;;;;5010482;28;20135;-89
2022/08/11 16:40:37;;;;;;;2.28;1.73;;;29.40;91.80;;;;;;4980848;28;20462;-86
2022/08/11 16:48:34;;;;;;;2.42;1.50;;;29.20;91.80;;;;;;4980692;28;20056;-86
2022/08/11 16:51:00;;;;;;;2.85;1.80;;;29.20;91.90;;;;;;4997978;28;20050;-87
2022/08/11 16:53:29;;;;;;;1.77;1.10;;;29.20;92.00;;;;;;5009576;28;20047;-88
2022/08/11 16:55:55;;;;;;;3.13;1.45;;;29.40;92.10;;;;;;5017974;28;20401;-87
2022/08/11 17:01:05;;;;;;;4.97;1.70;;;29.10;92.60;;;;;;4980512;28;20061;-88
2022/08/11 17:14:43;;;;;;;4.77;2.17;;;28.80;93.50;;;;;;4980830;28;20096;-88
2022/08/11 17:17:12;;;;;;;6.40;1.90;;;28.80;93.70;;;;;;4994245;28;20292;-91
2022/08/11 17:19:40;;;;;;;4.38;1.80;;;28.70;93.90;;;;;;4995284;28;20054;-89
2022/08/11 17:24:50;;;;;;;3.38;1.70;;;28.70;94.10;;;;;;4997550;28;20046;-93
2022/08/11 17:27:18;;;;;;;4.00;1.75;;;28.60;94.40;;;;;;5004452;28;20062;-91
2022/08/11 17:29:48;;;;;;;4.53;1.63;;;28.50;94.60;;;;;;5012370;28;20085;-88
2022/08/11 17:35:30;;;;;;;2.85;1.95;;;28.30;94.80;;;;;;4986288;28;20093;-88
2022/08/11 17:38:17;;;;;;;2.00;1.90;;;28.30;94.90;;;;;;4985321;28;20550;-88
2022/08/11 17:49:19;;;;;;;3.50;2.00;;;28.10;95.50;;;;;;4978293;28;20058;-90
2022/08/11 17:59:57;;;;;;;2.90;1.80;;;27.70;96.10;;;;;;4984641;28;20047;-88
2022/08/11 18:05:11;;;;;;;4.75;1.88;;;27.70;94.30;;;;;;5013367;28;20070;-89
